METAR Data
IDs: Format: Raw Decoded Include TAF

Data at: 0624 UTC 23 Feb 2019

PAKF 230608Z AUTO 18012G26KT 8SM OVC011 03/02 A3003 RMK AO2 PK WND 17026/0604
PAKF 230556Z AUTO 18012G19KT 8SM OVC009 03/02 A3003 RMK AO2 RAE49 CIG 006V011 SLP169 P0005 60053 T00330017 10039 20033 56003
PAKF 230537Z AUTO 16010G17KT 4SM -RA BR OVC007 03/02 A3003 RMK AO2 CIG 005V010 P0005
PAKF 230516Z AUTO 18012G19KT 3SM -RA BR OVC005 03/02 A3003 RMK AO2 CIG 004V009 P0003
PAKF 230456Z AUTO 16009G16KT 2 1/2SM -RA BR OVC005 03/03 A3003 RMK AO2 SLP169 P0011 T00330028
PAKF 230437Z AUTO 16010KT 2SM -RA BR OVC005 03/03 A3003 RMK AO2 VIS 1 1/2V3 P0008
PAKF 230413Z AUTO 16007KT 2SM -RA BR BKN007 OVC011 03/03 A3003 RMK AO2 VIS 1 1/2V4 CIG 004V008 P0004
PAKF 230401Z AUTO 17006KT 1 3/4SM -RA BR BKN007 OVC014 03/03 A3003 RMK AO2 CIG 004V011 P0001
PAKF 230356Z AUTO 17008KT 2SM -RA BR BKN005 OVC010 03/03 A3003 RMK AO2 VIS 1 3/4V3 CIG 004V009 SLP170 P0013 T00330028
PAKF 230342Z AUTO 17010G15KT 2SM -RA BR BKN005 BKN010 OVC016 03/03 A3003 RMK AO2 VIS 1 1/4V3 CIG 004V009 P0010
PAKF 230332Z AUTO 16008KT 2 1/2SM -RA BR BKN007 BKN010 OVC016 04/03 A3003 RMK AO2 VIS 2V4 CIG 004V008 P0007
PAKF 230325Z AUTO 17010KT 2 1/2SM -RA BR SCT005 SCT009 OVC016 04/03 A3004 RMK AO2 VIS 1 3/4V3 P0006
PAKF 230256Z AUTO 17008KT 2 1/2SM -RA BR BKN007 OVC014 04/03 A3004 RMK AO2 CIG 005V011 SLP172 P0009 60024 T00390028 50006
PAKF 230213Z AUTO 15014G17KT 2 1/2SM -RA BR OVC007 04/03 A3004 RMK AO2 CIG 004V010 P0003
PAKF 230205Z AUTO 15011KT 3SM -RA BR BKN007 OVC015 04/03 A3004 RMK AO2 CIG 004V010 P0002
PAKF 230156Z AUTO 16010KT 2 1/2SM -RA BR BKN007 OVC014 04/03 A3004 RMK AO2 VIS 1 3/4V4 SLP173 P0010 T00390028
PAKF 230148Z AUTO 16008G14KT 2SM -RA BR BKN007 OVC014 04/03 A3004 RMK AO2 P0008
PAKF 230124Z AUTO 18010G17KT 1 3/4SM -RA BR BKN007 OVC014 04/03 A3004 RMK AO2 VIS 1 1/2V3 CIG 004V009 P0004
PAKF 230116Z AUTO 18010G21KT 3SM -RA BR BKN007 OVC014 04/03 A3004 RMK AO2 CIG 005V009 P0003
PAKF 230107Z AUTO 17013G21KT 2 1/2SM -RA BR BKN007 OVC014 04/03 A3003 RMK AO2 CIG 004V010 P0001
PAKF 230056Z AUTO 18015G22KT 2 1/2SM -RA BR OVC005 04/03 A3003 RMK AO2 PK WND 18030/0013 VIS 2V3 CIG 004V010 SLP168 P0005 T00390028
PAKF 230043Z AUTO 17017G23KT 3SM -RA BR OVC005 04/03 A3002 RMK AO2 PK WND 18030/0013 P0004
PAKF 230028Z AUTO 19016G26KT 2 1/2SM -RA BR OVC005 04/03 A3002 RMK AO2 PK WND 18030/0013 CIG 005V010 P0003
PAKF 230026Z AUTO 17018G24KT 3SM -RA BR OVC007 04/03 A3002 RMK AO2 PK WND 18030/0013 CIG 005V010 P0002
PAKF 222356Z AUTO 18016G29KT 2 1/2SM -RA BR OVC007 04/03 A3002 RMK AO2 PK WND 17031/2328 CIG 005V011 SLP166 P0003 60010 T00390028 10039 20022 58020 $
PAKF 222334Z AUTO 17015G31KT 2 1/2SM -RA BR OVC007 04/03 A3003 RMK AO2 PK WND 17031/2328 CIG 005V010 PRESFR P0002
PAKF 222256Z AUTO 17018G28KT 4SM -RA BR OVC007 03/02 A3004 RMK AO2 PK WND 19031/2244 SLP174 P0002 T00330022
PAKF 222156Z AUTO 16012G22KT 3SM -RA BR OVC007 03/02 A3007 RMK AO2 SLP182 P0003 T00280017
PAKF 222125Z AUTO 17014G24KT 4SM -RA BR OVC007 02/01 A3008 RMK AO2 P0001 FZRANO
PAKF 222108Z AUTO 19012G24KT 2 1/2SM -RA BR OVC007 02/01 A3008 RMK AO2 P0000 FZRANO
PAKF 222056Z AUTO 18015G24KT 150V220 3SM -RA BR OVC007 03/01 A3008 RMK AO2 SLP186 P0002 60002 T00280011 58006
PAKF 222029Z AUTO 17014G23KT 4SM -RA BR OVC009 02/01 A3009 RMK AO2 P0001 FZRANO
PAKF 221956Z AUTO 18014G23KT 5SM -RA BR BKN014 OVC020 03/01 A3009 RMK AO2 UPB01E37RAB37 SLP191 P0000 T00280006
PAKF 221856Z AUTO 18009G25KT 7SM OVC020 03/M01 A3009 RMK AO2 SLP191 T00281006
PAKF 221756Z AUTO 19007KT 10SM OVC026 03/M02 A3010 RMK AO2 SLP192 T00281017 10028 20028 58014
PAKF 221743Z AUTO 17009G18KT 130V190 10SM OVC029 03/M02 A3010 RMK AO2
PAKF 221656Z AUTO 19007G17KT 140V220 10SM BKN030 OVC036 03/M03 A3011 RMK AO2 SLP197 T00281028
PAKF 221556Z AUTO 18009G16KT 10SM OVC032 03/M03 A3012 RMK AO2 SLP201 T00281028
PAKF 221456Z AUTO 19009G17KT 10SM OVC030 03/M03 A3014 RMK AO2 SLP205 T00281028 58017
PAKF 221356Z AUTO 18010G17KT 150V210 10SM OVC032 03/M03 A3015 RMK AO2 SLP211 T00281033
PAKF 221256Z AUTO 20011G15KT 10SM OVC032 03/M03 A3018 RMK AO2 SLP219 T00281033
PAKF 221156Z AUTO 20010G17KT 10SM OVC034 03/M04 A3019 RMK AO2 SLP222 T00281039 10028 20022 56008
PAKF 221056Z AUTO 20011G22KT 10SM OVC034 03/M03 A3020 RMK AO2 SLP226 T00281033
PAKF 220956Z AUTO 19016G25KT 160V240 10SM BKN035 OVC044 03/M04 A3020 RMK AO2 SLP226 T00281039
PAKF 220856Z AUTO 19013G25KT 160V230 10SM OVC036 03/M03 A3021 RMK AO2 SLP230 T00281033 400391006 56005
PAKF 220756Z AUTO 17010G19KT 140V230 10SM OVC034 03/M03 A3021 RMK AO2 PK WND 17026/0710 SLP232 T00281033
PAKF 220656Z AUTO 17015G24KT 10SM SCT035 03/M04 A3022 RMK AO2 PK WND 16029/0626 SLP233 T00281039
PAKF 220556Z AUTO 14010G21KT 10SM CLR 03/M03 A3022 RMK AO2 PK WND 17026/0542 SLP235 60000 T00281033 10033 20022 55007
PAKF 220456Z AUTO 17012G20KT 10SM CLR 03/M03 A3022 RMK AO2 SLP234 T00281033
PAKF 220356Z AUTO 17013G19KT 130V200 10SM BKN030 03/M03 A3024 RMK AO2 SLP239 T00281028
PAKF 220316Z AUTO 16014G20KT 10SM SCT028 SCT037 03/M03 A3024 RMK AO2
PAKF 220256Z AUTO 11008G15KT 080V150 10SM OVC026 03/M02 A3025 RMK AO2 UPB35E47 SLP242 P0000 60000 T00281022 56015
PAKF 220233Z AUTO VRB06KT 10SM BKN028 BKN033 03/M02 A3025 RMK AO2
PAKF 220156Z AUTO 16007KT 150V040 10SM BKN036 03/M04 A3025 RMK AO2 SLP242 T00331039
PAKF 220056Z AUTO 17011G18KT 140V200 10SM OVC036 03/M04 A3026 RMK AO2 SLP247 T00331039
PAKF 212356Z AUTO 18013G17KT 10SM BKN038 03/M04 A3029 RMK AO2 SLP257 T00331039 10039 20006 58015
PAKF 212256Z AUTO 19013G23KT 10SM FEW032 03/M04 A3031 RMK AO2 SLP263 T00331039
PAKF 212156Z AUTO 20012G20KT 10SM CLR 03/M04 A3032 RMK AO2 SLP268 T00331044
PAKF 212056Z AUTO 20010G15KT 10SM CLR 04/M05 A3033 RMK AO2 SLP272 T00391050 50001
PAKF 211956Z AUTO 13006KT 10SM CLR 02/M04 A3034 RMK AO2 SLP275 T00171044 FZRANO
PAKF 211856Z AUTO 00000KT 10SM SCT060 01/M05 A3034 RMK AO2 SLP273 T00111050 FZRANO